Time;durP1;ratioP1;P1;durP2;ratioP2;P2;SDS_P1;SDS_P2;PMS_P1;PMS_P2;Temp;Humidity;BMP_temperature;BMP_pressure;BME280_temperature;BME280_humidity;BME280_pressure;Samples;Min_cycle;Max_cycle;Signal;HPM_P1;HPM_P2
2022/12/02 00:00:55;;;;;;;65.63;20.37;;;1.60;99.90;;;;;;6148775;23;20398;-46
2022/12/02 00:03:24;;;;;;;69.53;21.53;;;1.60;99.90;;;;;;6178936;23;20374;-45
2022/12/02 00:05:53;;;;;;;81.90;22.47;;;1.60;99.90;;;;;;6175821;23;20198;-46
2022/12/02 00:08:22;;;;;;;70.73;22.27;;;1.60;99.90;;;;;;6179062;23;20911;-45
2022/12/02 00:10:50;;;;;;;71.53;22.07;;;1.60;99.90;;;;;;6176438;23;21055;-45
2022/12/02 00:13:21;;;;;;;74.03;21.63;;;1.60;99.90;;;;;;6178990;23;20383;-46
2022/12/02 00:15:51;;;;;;;78.33;22.93;;;1.60;99.90;;;;;;6174880;23;20471;-45
2022/12/02 00:18:17;;;;;;;76.37;22.70;;;1.60;99.90;;;;;;6178699;23;20383;-45
2022/12/02 00:20:44;;;;;;;73.07;22.50;;;1.60;99.90;;;;;;6175991;23;20814;-46
2022/12/02 00:23:10;;;;;;;83.07;24.73;;;1.60;99.90;;;;;;6178821;23;20233;-45
2022/12/02 00:25:35;;;;;;;84.57;25.90;;;1.60;99.90;;;;;;6175864;23;20371;-45
2022/12/02 00:28:02;;;;;;;86.67;24.53;;;1.50;99.90;;;;;;6178950;23;20179;-47
2022/12/02 00:30:27;;;;;;;82.83;23.67;;;1.50;99.90;;;;;;6177215;23;20159;-45
2022/12/02 00:32:53;;;;;;;95.60;27.03;;;1.50;99.90;;;;;;6180318;23;20389;-45
2022/12/02 00:35:20;;;;;;;90.43;24.93;;;1.40;99.90;;;;;;6175635;23;20152;-45
2022/12/02 00:37:45;;;;;;;83.07;25.33;;;1.50;99.90;;;;;;6173402;23;20164;-45
2022/12/02 00:40:11;;;;;;;86.17;24.20;;;1.50;99.90;;;;;;6179531;23;20438;-46
2022/12/02 00:42:37;;;;;;;97.43;26.70;;;1.50;99.90;;;;;;6183021;23;20171;-45
2022/12/02 00:47:48;;;;;;;96.47;25.67;;;1.40;99.90;;;;;;6183080;23;20644;-45
2022/12/02 00:50:14;;;;;;;107.00;26.97;;;1.40;99.90;;;;;;6183910;23;20461;-45
2022/12/02 00:52:39;;;;;;;99.83;26.20;;;1.40;99.90;;;;;;6182051;23;20198;-45
2022/12/02 00:55:06;;;;;;;88.13;25.90;;;1.40;99.90;;;;;;6183793;23;20861;-45
2022/12/02 00:57:31;;;;;;;107.07;26.70;;;1.40;99.90;;;;;;6183727;23;20190;-45
2022/12/02 00:59:57;;;;;;;98.67;25.07;;;1.30;99.90;;;;;;6184087;23;20382;-45
2022/12/02 01:02:23;;;;;;;93.50;25.57;;;1.30;99.90;;;;;;6183149;23;20147;-46
2022/12/02 01:04:48;;;;;;;83.93;24.23;;;1.30;99.90;;;;;;6183246;23;20158;-45
2022/12/02 01:07:14;;;;;;;94.47;24.63;;;1.30;99.90;;;;;;6183913;23;20182;-46
2022/12/02 01:09:40;;;;;;;97.03;25.47;;;1.20;99.90;;;;;;6183173;23;20143;-45
2022/12/02 01:12:06;;;;;;;88.30;25.73;;;1.20;99.90;;;;;;6182990;23;20170;-45
2022/12/02 01:14:32;;;;;;;99.87;24.10;;;1.20;99.90;;;;;;6183349;23;20434;-45
2022/12/02 01:16:58;;;;;;;104.60;25.47;;;1.20;1.00;;;;;;6183937;23;20386;-45
2022/12/02 01:19:23;;;;;;;75.20;23.77;;;1.20;1.00;;;;;;6184345;23;20425;-45
2022/12/02 01:21:49;;;;;;;109.10;26.43;;;1.20;1.00;;;;;;6176822;23;20218;-45
2022/12/02 01:24:14;;;;;;;85.93;23.73;;;1.20;1.00;;;;;;6183799;23;20151;-45
2022/12/02 01:26:40;;;;;;;87.90;24.23;;;1.20;99.90;;;;;;6184057;23;20469;-45
2022/12/02 01:29:06;;;;;;;74.37;22.70;;;1.20;99.90;;;;;;6182918;23;20257;-45
2022/12/02 01:31:33;;;;;;;83.23;24.30;;;1.20;99.90;;;;;;6183582;23;20233;-45
2022/12/02 01:33:58;;;;;;;74.63;23.40;;;1.20;99.90;;;;;;6183584;23;20449;-46
2022/12/02 01:36:24;;;;;;;85.63;25.00;;;1.20;99.90;;;;;;6182148;23;20225;-45
2022/12/02 01:38:49;;;;;;;85.60;23.83;;;1.20;99.90;;;;;;6182622;23;20214;-45
2022/12/02 01:41:15;;;;;;;82.67;25.70;;;1.20;99.90;;;;;;6182757;23;20162;-44
2022/12/02 01:43:40;;;;;;;72.93;24.70;;;1.20;65.30;;;;;;6182665;23;20523;-45
2022/12/02 01:46:07;;;;;;;85.27;26.03;;;1.20;28.80;;;;;;6183041;23;20209;-45
2022/12/02 01:48:35;;;;;;;77.80;24.40;;;1.20;20.60;;;;;;6183003;23;20175;-45
2022/12/02 01:51:01;;;;;;;77.03;25.63;;;1.20;69.90;;;;;;6182756;23;21119;-45
2022/12/02 01:53:26;;;;;;;78.70;26.10;;;1.30;79.10;;;;;;6183345;23;20366;-42
2022/12/02 01:55:52;;;;;;;88.27;26.20;;;1.30;89.60;;;;;;6182109;23;20371;-45
2022/12/02 01:58:22;;;;;;;93.63;27.70;;;1.30;97.70;;;;;;6183049;23;20159;-45
2022/12/02 02:00:47;;;;;;;94.00;27.63;;;1.30;26.60;;;;;;6182935;23;20250;-45
2022/12/02 02:03:13;;;;;;;87.90;27.03;;;1.30;1.00;;;;;;6183303;23;20409;-44
2022/12/02 02:05:38;;;;;;;92.13;28.67;;;1.30;1.00;;;;;;6182428;23;20163;-45
2022/12/02 02:08:07;;;;;;;94.37;29.63;;;1.30;7.50;;;;;;6182961;23;20167;-45
2022/12/02 02:10:34;;;;;;;92.57;30.60;;;1.30;50.30;;;;;;6182455;23;20212;-45
2022/12/02 02:13:00;;;;;;;94.07;30.10;;;1.30;96.40;;;;;;6179263;23;20393;-45
2022/12/02 02:15:26;;;;;;;94.67;29.70;;;1.30;99.90;;;;;;6180522;23;20445;-45
2022/12/02 02:17:55;;;;;;;109.90;32.37;;;1.30;99.90;;;;;;6182429;23;20359;-45
2022/12/02 02:20:22;;;;;;;102.70;31.50;;;1.30;99.90;;;;;;6182976;23;20699;-46
2022/12/02 02:23:06;;;;;;;95.17;31.37;;;1.30;99.90;;;;;;6182781;23;20489;-45
2022/12/02 02:25:33;;;;;;;101.43;30.17;;;1.30;99.90;;;;;;6185361;23;20747;-45
2022/12/02 02:28:00;;;;;;;96.07;29.77;;;1.20;99.90;;;;;;6184808;23;20497;-45
2022/12/02 02:30:31;;;;;;;95.37;31.17;;;1.20;99.90;;;;;;6184696;23;20420;-45
2022/12/02 02:32:58;;;;;;;98.07;31.30;;;1.20;99.90;;;;;;6179278;23;20363;-45
2022/12/02 02:35:24;;;;;;;100.23;31.27;;;1.20;99.90;;;;;;6184205;23;20358;-45
2022/12/02 02:37:52;;;;;;;95.23;29.77;;;1.20;1.00;;;;;;6184518;23;20464;-45
2022/12/02 02:40:20;;;;;;;98.40;31.80;;;1.20;1.00;;;;;;6184684;23;20434;-45
2022/12/02 02:42:52;;;;;;;93.10;32.60;;;1.20;1.00;;;;;;6184498;23;20386;-45
2022/12/02 02:45:20;;;;;;;93.03;30.87;;;1.30;1.00;;;;;;6184323;23;20863;-46
2022/12/02 02:47:47;;;;;;;114.83;32.17;;;1.20;1.00;;;;;;6184838;23;20518;-46
2022/12/02 02:50:13;;;;;;;96.10;31.80;;;1.20;1.00;;;;;;6184237;23;20435;-46
2022/12/02 02:52:38;;;;;;;95.37;30.50;;;1.20;1.00;;;;;;6184544;23;20367;-45
2022/12/02 02:55:05;;;;;;;102.53;33.20;;;1.20;1.00;;;;;;6184840;23;20436;-45
2022/12/02 02:57:33;;;;;;;94.07;32.37;;;1.20;1.00;;;;;;6183995;23;20616;-45
2022/12/02 02:59:59;;;;;;;95.23;32.37;;;1.20;1.00;;;;;;6184387;23;20378;-46
2022/12/02 03:02:26;;;;;;;92.67;30.80;;;1.10;1.00;;;;;;6182625;23;20394;-45
2022/12/02 03:04:52;;;;;;;92.13;31.80;;;1.20;1.00;;;;;;6184925;23;20245;-45
2022/12/02 03:07:17;;;;;;;100.73;33.60;;;1.20;1.00;;;;;;6184188;23;20449;-46
2022/12/02 03:09:43;;;;;;;88.47;30.30;;;1.20;1.00;;;;;;6184617;23;20386;-45
2022/12/02 03:12:09;;;;;;;102.07;33.27;;;1.20;1.00;;;;;;6184387;23;20143;-45
2022/12/02 03:14:35;;;;;;;97.30;33.40;;;1.20;1.00;;;;;;6184255;23;20396;-43
2022/12/02 03:17:02;;;;;;;103.07;31.40;;;1.10;1.00;;;;;;6184258;23;20143;-45
2022/12/02 03:19:30;;;;;;;89.13;30.37;;;1.10;1.00;;;;;;6184326;23;20178;-46
2022/12/02 03:21:56;;;;;;;88.87;31.63;;;1.20;1.00;;;;;;6184118;23;20472;-45
2022/12/02 03:24:22;;;;;;;105.07;33.60;;;1.20;1.00;;;;;;6184347;23;20841;-45
2022/12/02 03:26:48;;;;;;;94.00;30.87;;;1.20;1.00;;;;;;6182321;23;20370;-45
2022/12/02 03:29:14;;;;;;;90.70;31.37;;;1.20;1.00;;;;;;6180920;23;20290;-46
2022/12/02 03:31:42;;;;;;;83.50;30.40;;;1.20;1.00;;;;;;6178294;23;20832;-45
2022/12/02 03:34:08;;;;;;;95.30;31.10;;;1.20;1.00;;;;;;6179237;23;20705;-45
2022/12/02 03:36:34;;;;;;;84.13;30.57;;;1.20;1.00;;;;;;6180481;23;20713;-46
2022/12/02 03:39:00;;;;;;;97.50;32.97;;;1.10;1.00;;;;;;6183931;23;20453;-46
2022/12/02 03:41:26;;;;;;;99.10;33.77;;;1.10;1.00;;;;;;6183913;23;20410;-46
2022/12/02 03:43:54;;;;;;;82.20;30.70;;;1.10;1.00;;;;;;6183682;23;20402;-46
2022/12/02 03:46:19;;;;;;;90.57;31.93;;;1.10;1.00;;;;;;6183605;23;20250;-46
2022/12/02 03:48:46;;;;;;;96.90;31.73;;;1.10;1.00;;;;;;6183491;23;20446;-46
2022/12/02 03:51:24;;;;;;;91.83;32.93;;;1.10;1.00;;;;;;6183534;23;20238;-46
2022/12/02 03:53:50;;;;;;;93.60;34.23;;;1.10;1.00;;;;;;6183352;23;20452;-46
2022/12/02 03:56:16;;;;;;;86.30;34.83;;;1.10;1.00;;;;;;6183992;23;20379;-46
2022/12/02 03:58:48;;;;;;;88.37;33.73;;;1.10;1.00;;;;;;6183615;23;20877;-46
2022/12/02 04:01:14;;;;;;;106.23;35.67;;;1.00;1.00;;;;;;6175649;23;20147;-46
2022/12/02 04:03:40;;;;;;;98.20;35.77;;;1.00;1.00;;;;;;6184051;23;20455;-46
2022/12/02 04:06:06;;;;;;;88.67;30.87;;;1.00;9.60;;;;;;6183193;23;20391;-46
2022/12/02 04:08:32;;;;;;;101.13;32.53;;;1.00;16.20;;;;;;6183428;23;20442;-45
2022/12/02 04:10:58;;;;;;;90.80;32.43;;;1.00;24.60;;;;;;6183753;23;20382;-46
2022/12/02 04:13:24;;;;;;;96.03;32.07;;;1.00;33.20;;;;;;6181839;23;20159;-45
2022/12/02 04:15:50;;;;;;;99.30;32.73;;;1.00;32.10;;;;;;6182959;23;20222;-46
2022/12/02 04:18:15;;;;;;;91.53;31.53;;;1.00;42.50;;;;;;6181972;23;20163;-46
2022/12/02 04:20:41;;;;;;;94.67;33.70;;;1.00;54.50;;;;;;6183428;23;20285;-46
2022/12/02 04:23:07;;;;;;;88.80;30.90;;;0.90;67.30;;;;;;6184124;23;20158;-46
2022/12/02 04:25:32;;;;;;;91.90;32.10;;;0.90;88.90;;;;;;6182929;23;20155;-46
2022/12/02 04:27:58;;;;;;;95.83;33.70;;;0.90;99.20;;;;;;6183362;23;20601;-46
2022/12/02 04:30:24;;;;;;;101.33;34.17;;;0.90;99.90;;;;;;6183077;23;20139;-46
2022/12/02 04:32:49;;;;;;;103.83;33.67;;;0.90;99.90;;;;;;6183756;23;20213;-46
2022/12/02 04:35:15;;;;;;;94.37;32.53;;;0.90;99.90;;;;;;6180917;23;20155;-46
2022/12/02 04:37:41;;;;;;;94.83;33.37;;;0.90;99.90;;;;;;6206764;23;20163;-46
2022/12/02 04:40:07;;;;;;;94.60;31.80;;;0.90;99.90;;;;;;6183092;23;20203;-47
2022/12/02 04:42:32;;;;;;;103.43;34.27;;;0.90;99.90;;;;;;6182500;23;20230;-46
2022/12/02 04:44:58;;;;;;;97.23;32.87;;;1.00;99.90;;;;;;6183224;23;20398;-46
2022/12/02 04:47:24;;;;;;;97.83;33.77;;;1.00;99.90;;;;;;6181796;23;20202;-46
2022/12/02 04:49:49;;;;;;;105.60;34.13;;;1.00;99.90;;;;;;6183307;23;20194;-46
2022/12/02 04:52:15;;;;;;;92.97;32.50;;;0.90;99.90;;;;;;6183454;23;20166;-46
2022/12/02 04:54:40;;;;;;;92.03;32.67;;;0.90;99.90;;;;;;6181094;23;20594;-46
2022/12/02 04:57:07;;;;;;;90.77;31.53;;;0.90;99.90;;;;;;6183587;23;20555;-46
2022/12/02 04:59:32;;;;;;;95.57;31.80;;;0.90;99.90;;;;;;6182997;23;20136;-46
2022/12/02 05:01:58;;;;;;;95.60;33.13;;;0.90;99.90;;;;;;6183870;23;20394;-47
2022/12/02 05:04:23;;;;;;;102.67;34.10;;;0.90;99.90;;;;;;6183032;23;20144;-46
2022/12/02 05:06:51;;;;;;;98.43;35.47;;;0.90;99.90;;;;;;6176749;23;20198;-47
2022/12/02 05:09:16;;;;;;;99.80;35.03;;;0.90;99.90;;;;;;6181500;23;20257;-46
2022/12/02 05:11:42;;;;;;;103.17;33.60;;;0.90;99.90;;;;;;6182844;23;21105;-46
2022/12/02 05:14:07;;;;;;;101.70;32.13;;;0.90;99.90;;;;;;6182718;23;20653;-46
2022/12/02 05:16:33;;;;;;;100.53;34.40;;;0.90;99.90;;;;;;6181674;23;20170;-47
2022/12/02 05:18:59;;;;;;;90.37;32.53;;;0.90;99.90;;;;;;6182975;23;20147;-46
2022/12/02 05:21:24;;;;;;;102.63;32.80;;;0.90;99.90;;;;;;6183238;23;20451;-46
2022/12/02 05:23:50;;;;;;;96.20;32.37;;;0.90;99.90;;;;;;6183129;23;20237;-46
2022/12/02 05:26:15;;;;;;;96.73;30.53;;;0.90;99.90;;;;;;6182170;23;20159;-46
2022/12/02 05:28:41;;;;;;;100.60;34.53;;;0.90;99.90;;;;;;6182851;23;20644;-47
2022/12/02 05:31:06;;;;;;;102.03;34.20;;;0.90;99.90;;;;;;6182265;23;20213;-54
2022/12/02 05:33:32;;;;;;;98.67;32.20;;;0.90;99.90;;;;;;6182633;23;20167;-47
2022/12/02 05:35:58;;;;;;;95.03;32.30;;;0.90;99.90;;;;;;6183683;23;20155;-48
2022/12/02 05:38:23;;;;;;;104.77;33.63;;;0.90;99.90;;;;;;6182779;23;20171;-46
2022/12/02 05:40:59;;;;;;;100.77;33.40;;;0.90;99.90;;;;;;6182820;23;20147;-47
2022/12/02 05:43:25;;;;;;;86.87;29.80;;;0.90;99.90;;;;;;6183280;23;20161;-46
2022/12/02 05:45:54;;;;;;;95.50;33.17;;;0.80;99.90;;;;;;6182897;23;20374;-47
2022/12/02 05:48:20;;;;;;;92.03;31.70;;;0.80;99.90;;;;;;6183000;23;20547;-47
2022/12/02 05:50:46;;;;;;;95.10;32.73;;;0.80;99.90;;;;;;6182434;23;20386;-46
2022/12/02 05:53:33;;;;;;;99.63;34.23;;;0.80;99.90;;;;;;6182782;23;20892;-46
2022/12/02 05:56:00;;;;;;;94.13;32.80;;;0.80;99.90;;;;;;6183417;23;20424;-46
2022/12/02 05:58:26;;;;;;;99.80;31.93;;;0.80;99.90;;;;;;6182339;23;20464;-46
2022/12/02 06:00:59;;;;;;;89.47;29.53;;;0.80;99.90;;;;;;6180514;23;20841;-46
2022/12/02 06:03:25;;;;;;;98.73;32.20;;;0.90;99.90;;;;;;6181880;23;20198;-47
2022/12/02 06:05:52;;;;;;;97.60;32.43;;;0.80;99.90;;;;;;6181989;23;20382;-47
2022/12/02 06:08:24;;;;;;;89.73;29.83;;;0.80;99.90;;;;;;6182043;23;20418;-46
2022/12/02 06:10:55;;;;;;;88.73;29.37;;;0.90;99.90;;;;;;6183138;23;20366;-47
2022/12/02 06:13:24;;;;;;;85.90;31.10;;;0.90;99.90;;;;;;6185271;23;20394;-46
2022/12/02 06:15:51;;;;;;;88.97;30.13;;;0.90;99.90;;;;;;6184177;23;20457;-47
2022/12/02 06:18:21;;;;;;;84.27;31.10;;;0.90;99.90;;;;;;6183241;23;20391;-46
2022/12/02 06:20:53;;;;;;;85.03;29.30;;;0.90;99.90;;;;;;6182235;23;20857;-46
2022/12/02 06:23:20;;;;;;;85.43;30.17;;;0.90;99.90;;;;;;6182714;23;20375;-46
2022/12/02 06:25:47;;;;;;;90.53;30.90;;;0.90;99.90;;;;;;6182922;23;20389;-46
2022/12/02 06:28:18;;;;;;;85.83;28.93;;;0.90;99.90;;;;;;6182873;23;20417;-47
2022/12/02 06:30:44;;;;;;;89.67;30.40;;;0.90;99.90;;;;;;6183078;23;20784;-47
2022/12/02 06:33:30;;;;;;;86.90;31.53;;;0.90;99.90;;;;;;6183144;23;20489;-46
2022/12/02 06:35:58;;;;;;;89.00;31.40;;;0.90;99.90;;;;;;6182221;23;20143;-47
2022/12/02 06:38:29;;;;;;;84.13;29.43;;;0.90;99.90;;;;;;6182191;23;20938;-46
2022/12/02 06:40:58;;;;;;;80.43;30.67;;;1.00;99.90;;;;;;6182477;23;20378;-47
2022/12/02 06:43:28;;;;;;;87.03;29.87;;;1.00;99.90;;;;;;6181852;23;20465;-47
2022/12/02 06:45:54;;;;;;;82.47;30.37;;;0.90;99.90;;;;;;6182218;23;20365;-47
2022/12/02 06:48:19;;;;;;;84.27;29.80;;;0.90;99.90;;;;;;6182311;23;20761;-47
2022/12/02 06:50:46;;;;;;;82.03;28.97;;;0.90;99.90;;;;;;6181639;23;20381;-47
2022/12/02 06:53:23;;;;;;;88.07;30.70;;;0.90;99.90;;;;;;6175171;23;20652;-47
2022/12/02 06:55:57;;;;;;;84.03;29.40;;;1.00;99.90;;;;;;6182740;23;20372;-47
2022/12/02 06:58:30;;;;;;;82.57;28.70;;;1.00;99.90;;;;;;6182367;23;20371;-46
2022/12/02 07:01:18;;;;;;;74.43;27.43;;;0.90;99.90;;;;;;6182393;23;20409;-47
2022/12/02 07:03:48;;;;;;;82.90;27.77;;;1.00;99.90;;;;;;6182199;23;20694;-47
2022/12/02 07:06:20;;;;;;;86.50;30.00;;;1.10;99.90;;;;;;6182646;23;20392;-46
2022/12/02 07:08:46;;;;;;;82.57;27.60;;;1.00;99.90;;;;;;6180831;23;20410;-46
2022/12/02 07:14:30;;;;;;;78.87;28.70;;;1.00;99.90;;;;;;6183730;23;20182;-46
2022/12/02 07:17:02;;;;;;;88.90;32.07;;;1.00;99.90;;;;;;6184573;23;20451;-46
2022/12/02 07:19:42;;;;;;;90.30;30.70;;;1.00;99.90;;;;;;6183881;23;20371;-46
2022/12/02 07:22:20;;;;;;;86.87;28.80;;;1.00;99.90;;;;;;6184772;23;20369;-46
2022/12/02 07:25:04;;;;;;;78.07;28.00;;;1.00;99.90;;;;;;6184642;23;20375;-46
2022/12/02 07:27:33;;;;;;;81.53;28.57;;;1.00;99.90;;;;;;6182221;23;20473;-46
2022/12/02 07:30:00;;;;;;;89.27;30.50;;;1.00;99.90;;;;;;6183610;23;20378;-46
2022/12/02 07:32:26;;;;;;;92.43;30.07;;;1.10;99.90;;;;;;6183221;23;20437;-46
2022/12/02 07:34:52;;;;;;;83.93;30.40;;;1.10;99.90;;;;;;6183859;23;20382;-46
2022/12/02 07:37:18;;;;;;;99.07;31.40;;;1.10;99.90;;;;;;6181467;23;20375;-46
2022/12/02 07:39:43;;;;;;;86.40;29.87;;;1.10;99.90;;;;;;6183151;23;20498;-47
2022/12/02 07:42:13;;;;;;;83.37;29.70;;;1.10;99.90;;;;;;6182875;23;20391;-46
2022/12/02 07:44:39;;;;;;;86.57;31.70;;;1.20;99.90;;;;;;6158564;23;20159;-47
2022/12/02 07:47:06;;;;;;;90.80;30.80;;;1.10;99.90;;;;;;6184580;23;20429;-46
2022/12/02 07:49:31;;;;;;;87.10;30.40;;;1.10;99.90;;;;;;6184864;23;20983;-46
2022/12/02 07:51:57;;;;;;;94.77;34.00;;;1.10;99.90;;;;;;6183725;23;20450;-46
2022/12/02 07:54:22;;;;;;;85.43;31.00;;;1.10;99.90;;;;;;6183230;23;20221;-46
2022/12/02 07:56:48;;;;;;;78.47;27.10;;;1.10;99.90;;;;;;6183523;23;20156;-46
2022/12/02 07:59:14;;;;;;;85.83;30.17;;;1.20;99.90;;;;;;6183859;23;20158;-46
2022/12/02 08:01:40;;;;;;;89.20;31.40;;;1.20;99.90;;;;;;6184769;23;20151;-46
2022/12/02 08:04:05;;;;;;;90.60;30.40;;;1.20;99.90;;;;;;6184359;23;20158;-46
2022/12/02 08:06:32;;;;;;;86.97;32.22;;;1.20;99.90;;;;;;6177079;23;20400;-46
2022/12/02 08:08:57;;;;;;;84.63;31.53;;;1.30;99.90;;;;;;6176716;23;20281;-46
2022/12/02 08:11:23;;;;;;;78.43;28.90;;;1.30;99.90;;;;;;6180090;23;20162;-46
2022/12/02 08:13:49;;;;;;;86.33;26.70;;;1.30;99.90;;;;;;6184362;23;20166;-47
2022/12/02 08:16:14;;;;;;;72.67;30.00;;;1.30;99.90;;;;;;6184194;23;20563;-46
2022/12/02 08:18:40;;;;;;;79.63;29.77;;;1.40;99.90;;;;;;6183990;23;20155;-46
2022/12/02 08:21:05;;;;;;;84.17;28.47;;;1.30;99.90;;;;;;6183992;23;20143;-46
2022/12/02 08:23:31;;;;;;;83.47;29.73;;;1.30;99.90;;;;;;6183480;23;20179;-46
2022/12/02 08:25:56;;;;;;;90.60;28.97;;;1.30;99.90;;;;;;6183753;23;20162;-46
2022/12/02 08:28:22;;;;;;;79.90;28.67;;;1.40;99.90;;;;;;6183769;23;20249;-47
2022/12/02 08:30:48;;;;;;;87.13;28.67;;;1.40;99.90;;;;;;6184070;23;20538;-47
2022/12/02 08:33:13;;;;;;;78.83;28.53;;;1.50;99.90;;;;;;6184018;23;20152;-46
2022/12/02 08:35:39;;;;;;;73.50;27.30;;;1.50;99.90;;;;;;6183752;23;20151;-47
2022/12/02 08:38:06;;;;;;;74.40;28.70;;;1.50;99.90;;;;;;6183760;23;20190;-47
2022/12/02 08:40:33;;;;;;;88.87;30.43;;;1.60;99.90;;;;;;6182919;23;20672;-47
2022/12/02 08:43:00;;;;;;;81.23;29.77;;;1.50;99.90;;;;;;6176940;23;20420;-46
2022/12/02 08:45:26;;;;;;;77.80;28.17;;;1.60;99.90;;;;;;6183554;23;20681;-47
2022/12/02 08:47:51;;;;;;;82.00;29.37;;;1.60;99.90;;;;;;6184273;23;20440;-46
2022/12/02 08:50:17;;;;;;;79.03;27.93;;;1.60;99.90;;;;;;6184296;23;20152;-47
2022/12/02 08:52:43;;;;;;;91.77;31.17;;;1.70;99.90;;;;;;6184747;23;20179;-47
2022/12/02 08:55:08;;;;;;;87.23;29.10;;;1.70;99.90;;;;;;6183599;23;20148;-47
2022/12/02 08:57:34;;;;;;;91.37;31.73;;;1.80;99.90;;;;;;6184222;23;20452;-46
2022/12/02 08:59:59;;;;;;;88.97;33.20;;;1.90;99.90;;;;;;6184412;23;20147;-47
2022/12/02 09:02:25;;;;;;;77.47;29.27;;;2.00;99.90;;;;;;6184336;23;20581;-46
2022/12/02 09:04:51;;;;;;;76.50;28.70;;;2.00;99.90;;;;;;6183371;23;20159;-46
2022/12/02 09:07:16;;;;;;;71.10;27.63;;;2.00;99.90;;;;;;6183900;23;20143;-47
2022/12/02 09:09:42;;;;;;;73.63;29.20;;;2.00;60.60;;;;;;6183048;23;20148;-46
2022/12/02 09:12:08;;;;;;;77.10;30.03;;;1.90;22.50;;;;;;6184122;23;20154;-46
2022/12/02 09:14:33;;;;;;;86.80;30.20;;;1.90;1.00;;;;;;6183557;23;20701;-46
2022/12/02 09:16:59;;;;;;;71.77;27.23;;;2.00;1.00;;;;;;6182376;23;20186;-47
2022/12/02 09:19:24;;;;;;;83.93;29.63;;;2.00;1.00;;;;;;6182611;23;20198;-46
2022/12/02 09:21:50;;;;;;;81.60;30.53;;;2.00;1.00;;;;;;6182445;23;20525;-45
2022/12/02 09:24:15;;;;;;;77.60;28.73;;;2.10;1.00;;;;;;6182613;23;20152;-46
2022/12/02 09:26:41;;;;;;;83.57;29.23;;;2.10;1.00;;;;;;6182365;23;20158;-47
2022/12/02 09:29:06;;;;;;;77.37;30.20;;;2.10;1.00;;;;;;6182422;23;20193;-46
2022/12/02 09:31:33;;;;;;;81.53;29.83;;;2.00;1.00;;;;;;6181996;23;20144;-46
2022/12/02 09:33:58;;;;;;;83.97;28.47;;;2.00;1.00;;;;;;6181676;23;20209;-46
2022/12/02 09:36:24;;;;;;;78.83;29.30;;;1.90;1.00;;;;;;6182594;23;20386;-47
2022/12/02 09:38:49;;;;;;;82.27;31.03;;;1.90;1.00;;;;;;6181784;23;20205;-47
2022/12/02 09:41:15;;;;;;;78.27;28.47;;;2.00;1.00;;;;;;6182007;23;20209;-45
2022/12/02 09:43:41;;;;;;;80.93;30.97;;;2.00;1.00;;;;;;6181996;23;20213;-46
2022/12/02 09:46:08;;;;;;;81.50;31.13;;;2.00;1.00;;;;;;6181939;23;20230;-46
2022/12/02 09:48:34;;;;;;;77.00;29.47;;;2.10;1.00;;;;;;6181678;23;20282;-46
2022/12/02 09:51:00;;;;;;;89.43;29.03;;;2.10;1.00;;;;;;6181679;23;20374;-46
2022/12/02 09:53:35;;;;;;;80.13;30.30;;;2.10;1.00;;;;;;6181481;23;20379;-46
2022/12/02 09:56:01;;;;;;;79.83;29.70;;;2.10;1.00;;;;;;6182104;23;20394;-46
2022/12/02 09:58:27;;;;;;;76.30;28.73;;;2.20;1.00;;;;;;6181781;23;20370;-46
2022/12/02 10:00:52;;;;;;;84.37;31.23;;;2.10;1.00;;;;;;6181687;23;20406;-46
2022/12/02 10:03:24;;;;;;;78.57;30.30;;;2.10;1.00;;;;;;6182856;23;20367;-47
2022/12/02 10:05:50;;;;;;;81.63;31.03;;;2.00;1.00;;;;;;6182986;23;20143;-46
2022/12/02 10:08:22;;;;;;;81.33;30.53;;;2.00;1.00;;;;;;6182443;23;20916;-46
2022/12/02 10:10:51;;;;;;;89.03;31.90;;;2.00;1.00;;;;;;6182807;23;20148;-47
2022/12/02 10:13:19;;;;;;;92.60;30.83;;;2.00;1.00;;;;;;6181778;23;20437;-46
2022/12/02 10:15:45;;;;;;;85.53;31.67;;;2.00;1.00;;;;;;6181902;23;20375;-48
2022/12/02 10:18:20;;;;;;;79.07;30.10;;;2.00;1.00;;;;;;6181515;23;20809;-47
2022/12/02 10:20:49;;;;;;;82.50;29.63;;;2.10;1.00;;;;;;6181778;23;20417;-48
2022/12/02 10:23:17;;;;;;;89.67;31.37;;;2.10;1.00;;;;;;6181753;23;20401;-45
2022/12/02 10:25:44;;;;;;;77.93;30.60;;;2.20;1.00;;;;;;6182160;23;20379;-46
2022/12/02 10:28:30;;;;;;;86.53;30.20;;;2.30;1.00;;;;;;6182245;23;20425;-45
2022/12/02 10:31:03;;;;;;;77.33;29.13;;;2.40;1.00;;;;;;6175185;23;20362;-46
2022/12/02 10:33:31;;;;;;;76.90;31.00;;;2.40;1.00;;;;;;6182073;23;20367;-45
2022/12/02 10:35:59;;;;;;;87.53;29.70;;;2.40;99.90;;;;;;6181264;23;20381;-46
2022/12/02 10:38:29;;;;;;;83.80;29.27;;;2.30;99.90;;;;;;6181713;23;20398;-46
2022/12/02 10:41:10;;;;;;;85.57;31.07;;;2.20;99.90;;;;;;6182982;23;20490;-46
2022/12/02 10:43:35;;;;;;;69.20;28.00;;;2.20;99.90;;;;;;6182995;23;20394;-46
2022/12/02 10:46:01;;;;;;;75.27;28.87;;;2.20;1.00;;;;;;6183945;23;20397;-46
2022/12/02 10:48:26;;;;;;;79.37;32.50;;;2.20;1.00;;;;;;6184316;23;20229;-47
2022/12/02 10:50:52;;;;;;;77.90;30.00;;;2.30;1.00;;;;;;6184375;23;20235;-46
2022/12/02 10:53:28;;;;;;;80.73;29.57;;;2.30;1.00;;;;;;6177104;23;20512;-46
2022/12/02 10:55:54;;;;;;;79.00;30.67;;;2.30;1.00;;;;;;6185002;23;20189;-46
2022/12/02 10:58:28;;;;;;;87.70;30.60;;;2.30;1.00;;;;;;6184568;23;20389;-47
2022/12/02 11:00:55;;;;;;;90.17;30.20;;;2.30;1.00;;;;;;6181421;23;20848;-46
2022/12/02 11:03:21;;;;;;;82.13;30.70;;;2.30;1.00;;;;;;6183521;23;20833;-47
2022/12/02 11:05:47;;;;;;;75.83;29.70;;;2.20;1.00;;;;;;6184987;23;20390;-46
2022/12/02 11:08:24;;;;;;;84.03;30.27;;;2.30;1.00;;;;;;6184901;23;20517;-47
2022/12/02 11:11:11;;;;;;;80.03;29.90;;;2.30;1.00;;;;;;6185361;23;20154;-46
2022/12/02 11:13:51;;;;;;;79.47;33.00;;;2.20;99.90;;;;;;6184268;23;20491;-46
2022/12/02 11:16:26;;;;;;;85.20;29.90;;;2.30;1.00;;;;;;6185028;23;20374;-46
2022/12/02 11:19:39;;;;;;;80.43;30.63;;;2.30;1.00;;;;;;6184973;23;20373;-46
2022/12/02 11:22:44;;;;;;;85.40;30.40;;;2.30;1.00;;;;;;6165253;23;20703;-46
2022/12/02 11:25:41;;;;;;;86.17;30.23;;;2.40;99.90;;;;;;6184639;23;20377;-46
2022/12/02 11:28:28;;;;;;;78.17;29.27;;;2.50;99.90;;;;;;6184900;23;20553;-46
2022/12/02 11:31:09;;;;;;;81.03;29.33;;;2.50;99.90;;;;;;6185152;23;20510;-46
2022/12/02 11:33:44;;;;;;;79.17;29.27;;;2.50;99.90;;;;;;6177957;23;20367;-47
2022/12/02 11:36:18;;;;;;;73.00;29.33;;;2.50;99.90;;;;;;6184494;23;20413;-47
2022/12/02 11:38:51;;;;;;;73.30;28.53;;;2.60;99.90;;;;;;6184064;23;20571;-48
2022/12/02 11:41:23;;;;;;;83.67;28.83;;;2.60;99.90;;;;;;6184933;23;20794;-46
2022/12/02 11:44:04;;;;;;;76.03;27.90;;;2.50;99.90;;;;;;6184384;23;20450;-47
2022/12/02 11:46:43;;;;;;;69.60;27.23;;;2.50;99.90;;;;;;6184600;23;20366;-46
2022/12/02 11:49:26;;;;;;;72.50;30.13;;;2.50;99.90;;;;;;6184475;23;20596;-47
2022/12/02 11:52:12;;;;;;;72.63;28.77;;;2.50;99.90;;;;;;6184136;23;20448;-47
2022/12/02 11:54:40;;;;;;;71.40;28.03;;;2.50;35.00;;;;;;6177306;23;20799;-46
2022/12/02 11:57:06;;;;;;;89.73;29.30;;;2.50;25.30;;;;;;6184098;23;20397;-46
2022/12/02 11:59:34;;;;;;;82.20;30.07;;;2.50;99.30;;;;;;6184028;23;20418;-47
2022/12/02 12:02:17;;;;;;;76.30;27.60;;;2.40;99.90;;;;;;6184536;23;20412;-47
2022/12/02 12:04:44;;;;;;;73.73;27.47;;;2.40;99.90;;;;;;6184121;23;20402;-47
2022/12/02 12:07:11;;;;;;;72.20;28.90;;;2.40;99.90;;;;;;6184644;23;20421;-46
2022/12/02 12:09:37;;;;;;;80.80;28.20;;;2.40;99.90;;;;;;6175943;23;20390;-46
2022/12/02 12:12:17;;;;;;;84.33;29.40;;;2.40;99.90;;;;;;6183967;23;20433;-47
2022/12/02 12:14:52;;;;;;;67.87;27.70;;;2.40;99.90;;;;;;6184188;23;20143;-47
2022/12/02 12:17:38;;;;;;;74.00;27.73;;;2.50;99.90;;;;;;6183144;23;20401;-47
2022/12/02 12:20:24;;;;;;;73.73;27.97;;;2.50;99.90;;;;;;6183567;23;20448;-46
2022/12/02 12:22:50;;;;;;;71.83;26.90;;;2.50;99.90;;;;;;6183776;23;20771;-47
2022/12/02 12:25:41;;;;;;;67.27;27.00;;;2.60;99.90;;;;;;6183508;23;20414;-43
2022/12/02 12:28:27;;;;;;;72.77;24.70;;;2.60;99.90;;;;;;6176919;23;20190;-46
2022/12/02 12:30:53;;;;;;;73.47;26.80;;;2.60;99.90;;;;;;6182457;23;20388;-46
2022/12/02 12:33:19;;;;;;;80.90;27.70;;;2.60;99.90;;;;;;6182734;23;20833;-47
2022/12/02 12:35:44;;;;;;;67.70;25.73;;;2.60;99.90;;;;;;6183388;23;20915;-56
2022/12/02 12:38:10;;;;;;;73.67;27.30;;;2.60;99.90;;;;;;6183701;23;20402;-47
2022/12/02 12:40:36;;;;;;;69.37;27.73;;;2.60;99.90;;;;;;6184010;23;20265;-46
2022/12/02 12:43:01;;;;;;;72.30;28.57;;;2.60;99.90;;;;;;6184439;23;20229;-46
2022/12/02 12:45:27;;;;;;;72.83;27.87;;;2.50;99.90;;;;;;6183763;23;20144;-47
2022/12/02 12:47:53;;;;;;;69.70;27.50;;;2.50;99.90;;;;;;6183638;23;20187;-46
2022/12/02 12:50:18;;;;;;;76.23;27.03;;;2.50;99.90;;;;;;6183532;23;20151;-46